createdAt,value
2019-05-22T00:04:46.102Z,58.30
2019-05-22T00:10:12.198Z,61.55
2019-05-22T00:15:38.647Z,64.65
2019-05-22T00:21:04.494Z,61.47
2019-05-22T00:26:29.181Z,52.40
2019-05-22T00:31:53.019Z,44.83
2019-05-22T00:37:17.684Z,34.18
2019-05-22T00:42:45.764Z,32.10
2019-05-22T00:48:11.457Z,36.20
2019-05-22T00:53:55.618Z,30.03
2019-05-22T00:59:29.286Z,31.27
2019-05-22T01:04:54.877Z,28.15
2019-05-22T01:10:18.912Z,30.23
2019-05-22T01:15:43.430Z,32.53
2019-05-22T01:21:09.937Z,38.10
2019-05-22T01:26:35.691Z,40.70
2019-05-22T01:32:08.454Z,34.73
2019-05-22T01:37:34.636Z,33.73
2019-05-22T01:43:00.674Z,33.53
2019-05-22T01:48:31.526Z,31.23
2019-05-22T01:53:56.071Z,23.18
2019-05-22T01:59:20.100Z,23.30
2019-05-22T02:04:47.508Z,22.00
2019-05-22T02:10:17.516Z,20.73
2019-05-22T02:15:41.494Z,24.60
2019-05-22T02:21:06.874Z,25.33
2019-05-22T02:26:32.130Z,24.03
2019-05-22T02:31:58.538Z,21.87
2019-05-22T02:37:24.556Z,21.23
2019-05-22T02:42:50.592Z,17.67
2019-05-22T02:48:15.469Z,17.03
2019-05-22T02:53:40.974Z,19.03
2019-05-22T02:59:07.597Z,18.53
2019-05-22T03:05:03.749Z,16.53
2019-05-22T03:10:29.643Z,18.00
2019-05-22T03:15:54.959Z,18.80
2019-05-22T03:21:20.054Z,25.37
2019-05-22T03:26:48.725Z,24.33
2019-05-22T03:32:13.396Z,25.47
2019-05-22T03:37:39.605Z,23.93
2019-05-22T03:43:15.888Z,22.80
2019-05-22T03:48:40.597Z,33.43
2019-05-22T03:54:06.532Z,24.03
2019-05-22T03:59:31.206Z,24.47
2019-05-22T04:04:55.120Z,21.03
2019-05-22T04:10:21.522Z,22.63
2019-05-22T04:15:46.015Z,29.00
2019-05-22T04:21:10.180Z,24.83
2019-05-22T04:26:34.260Z,19.00
2019-05-22T04:32:15.623Z,21.50
2019-05-22T04:37:43.094Z,22.27
2019-05-22T04:43:08.420Z,26.70
2019-05-22T04:48:35.012Z,24.80
2019-05-22T04:53:59.339Z,21.17
2019-05-22T04:59:24.245Z,19.17
2019-05-22T05:04:48.237Z,20.33
2019-05-22T05:10:13.026Z,24.50
2019-05-22T05:15:37.369Z,24.57
2019-05-22T05:21:01.827Z,22.87
2019-05-22T05:26:26.812Z,19.00
2019-05-22T05:31:52.141Z,15.97
2019-05-22T05:37:20.632Z,15.27
2019-05-22T05:42:45.676Z,12.30
2019-05-22T05:48:11.993Z,14.23
2019-05-22T05:53:44.315Z,14.27
2019-05-22T05:59:09.209Z,11.80
2019-05-22T06:04:39.394Z,17.63
2019-05-22T06:10:31.442Z,13.60
2019-05-22T06:17:00.887Z,16.93
2019-05-22T06:22:25.358Z,15.07
2019-05-22T06:27:55.282Z,13.27
2019-05-22T06:33:30.493Z,13.00
2019-05-22T06:39:03.040Z,14.97
2019-05-22T06:44:32.714Z,30.73
2019-05-22T06:49:57.801Z,18.00
2019-05-22T06:55:22.648Z,18.77
2019-05-22T07:00:49.491Z,18.97
2019-05-22T07:06:14.347Z,17.60
2019-05-22T07:11:38.703Z,13.07
2019-05-22T07:17:03.110Z,12.50
2019-05-22T07:22:28.382Z,12.77
2019-05-22T07:27:52.574Z,17.63
2019-05-22T07:33:18.629Z,19.67
2019-05-22T07:38:43.269Z,15.83
2019-05-22T07:44:07.970Z,23.33
2019-05-22T07:49:32.657Z,14.20
2019-05-22T07:54:56.809Z,13.53
2019-05-22T08:00:21.482Z,15.13
2019-05-22T08:05:51.611Z,11.63
2019-05-22T08:11:15.991Z,13.83
2019-05-22T08:16:40.774Z,11.03
2019-05-22T08:22:07.667Z,12.83
2019-05-22T08:27:32.104Z,11.67
2019-05-22T08:32:58.410Z,12.70
2019-05-22T08:38:29.976Z,12.23
2019-05-22T08:44:14.336Z,15.77
2019-05-22T08:49:20.230Z,16.77
2019-05-22T08:54:47.419Z,16.33
2019-05-22T09:00:14.321Z,13.60
2019-05-22T09:05:38.161Z,15.97
2019-05-22T09:11:03.780Z,16.63
2019-05-22T09:16:27.837Z,17.87
2019-05-22T09:21:51.573Z,14.07
2019-05-22T09:27:16.692Z,17.13
2019-05-22T09:32:40.815Z,15.73
2019-05-22T09:38:04.867Z,16.07
2019-05-22T09:43:29.843Z,13.60
2019-05-22T09:48:54.799Z,13.23
2019-05-22T09:54:19.673Z,14.37
2019-05-22T09:59:44.089Z,13.77
2019-05-22T10:05:11.000Z,12.07
2019-05-22T10:10:36.314Z,13.83
2019-05-22T10:15:59.815Z,11.10
2019-05-22T10:21:26.083Z,11.13
2019-05-22T10:26:50.149Z,12.03
2019-05-22T10:32:14.323Z,15.13
2019-05-22T10:37:38.230Z,13.90
2019-05-22T10:43:03.354Z,15.37
2019-05-22T10:48:28.418Z,13.23
2019-05-22T10:53:53.066Z,12.53
2019-05-22T10:59:17.476Z,15.33
2019-05-22T11:04:42.185Z,12.63
2019-05-22T11:10:06.647Z,12.57
2019-05-22T11:15:31.921Z,12.97
2019-05-22T11:20:56.173Z,13.50
2019-05-22T11:26:20.279Z,14.50
2019-05-22T11:31:44.996Z,16.13
2019-05-22T11:37:10.151Z,14.70
2019-05-22T11:42:34.860Z,17.73
2019-05-22T11:47:59.241Z,19.77
2019-05-22T11:53:22.646Z,21.27
2019-05-22T11:58:46.518Z,23.07
2019-05-22T12:04:12.011Z,22.97
2019-05-22T12:09:35.857Z,27.20
2019-05-22T12:15:00.625Z,28.03
2019-05-22T12:20:26.001Z,27.87
2019-05-22T12:25:49.605Z,35.03
2019-05-22T12:31:14.834Z,33.53
2019-05-22T12:36:38.604Z,35.10
2019-05-22T12:42:03.179Z,32.50
2019-05-22T12:47:27.810Z,34.73
2019-05-22T12:52:52.954Z,34.07
2019-05-22T12:58:18.204Z,31.60
2019-05-22T13:03:42.494Z,29.23
2019-05-22T13:09:10.676Z,33.33
2019-05-22T13:14:36.313Z,28.93
2019-05-22T13:20:01.208Z,32.77
2019-05-22T13:25:32.704Z,33.67
2019-05-22T13:30:58.230Z,31.63
2019-05-22T13:36:22.451Z,30.33
2019-05-22T13:41:46.905Z,30.03
2019-05-22T13:47:12.375Z,30.60
2019-05-22T13:52:37.970Z,32.00
2019-05-22T13:58:03.849Z,31.13
2019-05-22T14:03:28.495Z,32.33
2019-05-22T14:08:53.651Z,27.17
2019-05-22T14:14:17.952Z,29.07
2019-05-22T14:19:42.783Z,33.77
2019-05-22T14:25:07.824Z,34.37
2019-05-22T14:30:32.721Z,26.77
2019-05-22T14:35:57.199Z,30.43
2019-05-22T14:41:21.942Z,29.60
2019-05-22T14:46:46.303Z,35.17
2019-05-22T14:52:11.303Z,34.67
2019-05-22T14:57:35.965Z,31.43
2019-05-22T15:03:00.010Z,27.60
2019-05-22T15:08:24.798Z,29.13
2019-05-22T15:13:49.773Z,28.57
2019-05-22T15:19:14.651Z,26.57
2019-05-22T15:24:38.469Z,29.13
2019-05-22T15:30:03.552Z,25.43
2019-05-22T15:35:27.507Z,31.40
2019-05-22T15:40:53.089Z,27.07
2019-05-22T15:46:18.154Z,25.23
2019-05-22T15:51:44.239Z,24.37
2019-05-22T15:57:10.559Z,24.83
2019-05-22T16:02:35.276Z,29.77
2019-05-22T16:08:00.427Z,28.60
2019-05-22T16:13:26.686Z,26.87
2019-05-22T16:18:52.388Z,33.30
2019-05-22T16:24:17.507Z,23.87
2019-05-22T16:29:43.614Z,28.73
2019-05-22T16:35:08.549Z,32.33
2019-05-22T16:40:32.881Z,28.07
2019-05-22T16:45:57.649Z,23.17
2019-05-22T16:51:23.319Z,20.43
2019-05-22T16:56:47.494Z,23.80
2019-05-22T17:02:15.957Z,21.33
2019-05-22T17:07:41.854Z,17.93
2019-05-22T17:13:05.952Z,20.20
2019-05-22T17:18:45.910Z,19.93
2019-05-22T17:23:58.667Z,15.90
2019-05-22T17:29:23.387Z,18.27
2019-05-22T17:34:47.981Z,21.80
2019-05-22T17:40:15.236Z,24.93
2019-05-22T17:45:41.732Z,20.33
2019-05-22T17:51:06.966Z,19.00
2019-05-22T17:56:31.453Z,18.87
2019-05-22T18:01:57.313Z,17.23
2019-05-22T18:07:21.869Z,17.50
2019-05-22T18:12:46.133Z,15.77
2019-05-22T18:18:11.156Z,15.43
2019-05-22T18:23:35.143Z,17.80
2019-05-22T18:28:59.782Z,15.03
2019-05-22T18:34:24.690Z,14.50
2019-05-22T18:39:48.546Z,11.53
2019-05-22T18:45:14.189Z,13.20
2019-05-22T18:50:38.701Z,11.67
2019-05-22T18:56:03.748Z,15.17
2019-05-22T19:01:27.663Z,17.90
2019-05-22T19:06:55.653Z,19.90
2019-05-22T19:12:17.577Z,14.80
2019-05-22T19:17:41.735Z,17.50
2019-05-22T19:23:06.427Z,16.23
2019-05-22T19:28:42.790Z,12.97
2019-05-22T19:33:57.911Z,9.13
2019-05-22T19:39:22.198Z,11.10
2019-05-22T19:44:47.393Z,13.23
2019-05-22T19:50:22.665Z,11.80
2019-05-22T19:55:39.805Z,16.67
2019-05-22T20:01:06.258Z,14.53
2019-05-22T20:06:30.993Z,22.27
2019-05-22T20:11:55.423Z,17.70
2019-05-22T20:17:20.469Z,13.07
2019-05-22T20:22:45.733Z,14.73
2019-05-22T20:28:10.104Z,18.93
2019-05-22T20:33:33.959Z,18.23
2019-05-22T20:38:58.487Z,13.23
2019-05-22T20:44:22.794Z,19.87
2019-05-22T20:49:47.997Z,19.47
2019-05-22T20:55:14.620Z,12.30
2019-05-22T21:00:40.685Z,11.37
2019-05-22T21:06:08.385Z,14.73
2019-05-22T21:11:34.103Z,19.40
2019-05-22T21:17:00.993Z,14.33
2019-05-22T21:22:27.555Z,14.87
2019-05-22T21:27:52.664Z,13.63
2019-05-22T21:33:17.964Z,33.87
2019-05-22T21:38:42.682Z,26.63
2019-05-22T21:44:06.771Z,30.90
2019-05-22T21:49:32.173Z,17.97
2019-05-22T21:54:56.891Z,12.37
2019-05-22T22:00:41.720Z,11.47
2019-05-22T22:06:06.406Z,14.97
2019-05-22T22:11:31.616Z,11.17
2019-05-22T22:16:56.369Z,17.77
2019-05-22T22:22:28.200Z,15.40
2019-05-22T22:27:52.517Z,12.57
2019-05-22T22:33:23.457Z,10.83
2019-05-22T22:38:48.191Z,15.20
2019-05-22T22:44:12.410Z,14.60
2019-05-22T22:49:37.883Z,9.53
2019-05-22T22:55:04.020Z,14.63
2019-05-22T23:00:37.718Z,14.27
2019-05-22T23:06:02.288Z,12.93
2019-05-22T23:11:27.439Z,15.70
2019-05-22T23:16:53.076Z,14.07
2019-05-22T23:22:32.049Z,15.27
2019-05-22T23:27:56.964Z,10.80
2019-05-22T23:33:20.692Z,15.13
2019-05-22T23:38:46.488Z,11.47
2019-05-22T23:44:14.510Z,13.43
2019-05-22T23:49:42.692Z,14.00
2019-05-22T23:55:06.777Z,13.27
